createdAt,value
2019-04-10T00:02:26.016Z,23.62
2019-04-10T00:04:57.733Z,23.59
2019-04-10T00:07:29.499Z,23.61
2019-04-10T00:10:01.499Z,23.60
2019-04-10T00:12:33.848Z,23.60
2019-04-10T00:15:07.167Z,23.63
2019-04-10T00:17:39.532Z,23.64
2019-04-10T00:20:11.951Z,23.59
2019-04-10T00:22:44.497Z,23.56
2019-04-10T00:25:16.848Z,23.57
2019-04-10T00:27:49.078Z,23.64
2019-04-10T00:30:20.786Z,23.65
2019-04-10T00:32:52.993Z,23.69
2019-04-10T00:35:25.614Z,23.67
2019-04-10T00:37:57.543Z,23.66
2019-04-10T00:40:31.067Z,23.67
2019-04-10T00:43:03.033Z,23.62
2019-04-10T00:45:35.613Z,23.63
2019-04-10T00:48:07.882Z,23.65
2019-04-10T00:50:40.112Z,23.68
2019-04-10T00:53:12.751Z,23.71
2019-04-10T00:55:46.114Z,23.77
2019-04-10T00:58:18.438Z,23.77
2019-04-10T01:00:50.469Z,23.84
2019-04-10T01:03:42.067Z,23.92
2019-04-10T01:06:14.348Z,23.97
2019-04-10T01:08:46.426Z,24.03
2019-04-10T01:11:19.017Z,24.05
2019-04-10T01:13:51.612Z,24.07
2019-04-10T01:16:23.580Z,24.01
2019-04-10T01:18:55.534Z,24.01
2019-04-10T01:21:28.273Z,23.94
2019-04-10T01:24:01.377Z,23.90
2019-04-10T01:26:33.257Z,23.82
2019-04-10T01:29:05.443Z,23.80
2019-04-10T01:31:37.461Z,23.69
2019-04-10T01:34:09.497Z,23.63
2019-04-10T01:36:41.239Z,23.58
2019-04-10T01:39:15.892Z,23.52
2019-04-10T01:41:48.156Z,23.54
2019-04-10T01:44:20.542Z,23.53
2019-04-10T01:46:52.948Z,23.56
2019-04-10T01:49:25.909Z,23.56
2019-04-10T01:51:58.136Z,23.55
2019-04-10T01:54:31.115Z,23.50
2019-04-10T01:57:04.098Z,23.45
2019-04-10T01:59:38.213Z,23.44
2019-04-10T02:02:12.691Z,23.44
2019-04-10T02:04:44.470Z,23.43
2019-04-10T02:07:16.275Z,23.37
2019-04-10T02:09:48.363Z,23.37
2019-04-10T02:12:20.737Z,23.41
2019-04-10T02:14:52.728Z,23.40
2019-04-10T02:17:24.805Z,23.38
2019-04-10T02:19:56.846Z,23.38
2019-04-10T02:22:29.499Z,23.40
2019-04-10T02:25:01.338Z,23.40
2019-04-10T02:27:34.322Z,23.41
2019-04-10T02:30:12.054Z,23.38
2019-04-10T02:32:47.726Z,23.34
2019-04-10T02:35:20.239Z,23.29
2019-04-10T02:37:55.385Z,23.25
2019-04-10T02:40:25.573Z,23.26
2019-04-10T02:42:59.042Z,23.23
2019-04-10T02:45:32.554Z,23.21
2019-04-10T02:48:06.160Z,23.20
2019-04-10T02:50:38.665Z,23.28
2019-04-10T02:53:10.987Z,23.32
2019-04-10T02:55:43.279Z,23.32
2019-04-10T02:58:16.066Z,23.43
2019-04-10T03:00:48.822Z,23.38
2019-04-10T03:03:22.401Z,23.34
2019-04-10T03:05:54.360Z,23.34
2019-04-10T03:08:43.187Z,23.34
2019-04-10T03:11:04.180Z,23.28
2019-04-10T03:13:35.724Z,23.22
2019-04-10T03:16:07.667Z,23.23
2019-04-10T03:18:41.019Z,23.17
2019-04-10T03:21:13.715Z,23.16
2019-04-10T03:23:45.726Z,23.12
2019-04-10T03:26:17.512Z,23.06
2019-04-10T03:28:49.455Z,23.05
2019-04-10T03:31:23.040Z,23.05
2019-04-10T03:33:58.773Z,23.05
2019-04-10T03:36:39.971Z,23.05
2019-04-10T03:39:13.122Z,23.06
2019-04-10T03:41:45.363Z,23.06
2019-04-10T03:44:18.618Z,23.07
2019-04-10T03:46:51.192Z,23.11
2019-04-10T03:49:24.238Z,23.12
2019-04-10T03:51:56.710Z,23.14
2019-04-10T03:54:30.090Z,23.21
2019-04-10T03:57:02.505Z,23.18
2019-04-10T03:59:35.974Z,23.20
2019-04-10T04:02:09.517Z,23.21
2019-04-10T04:04:42.329Z,23.21
2019-04-10T04:07:15.423Z,23.22
2019-04-10T04:09:48.069Z,23.21
2019-04-10T04:12:20.245Z,23.21
2019-04-10T04:14:52.778Z,23.19
2019-04-10T04:17:24.657Z,23.22
2019-04-10T04:19:56.705Z,23.22
2019-04-10T04:22:29.154Z,23.29
2019-04-10T04:25:01.322Z,23.30
2019-04-10T04:27:33.840Z,23.26
2019-04-10T04:30:08.346Z,23.22
2019-04-10T04:32:42.110Z,23.20
2019-04-10T04:35:15.275Z,23.12
2019-04-10T04:37:48.417Z,23.13
2019-04-10T04:40:21.639Z,23.11
2019-04-10T04:42:55.646Z,23.18
2019-04-10T04:45:27.859Z,23.17
2019-04-10T04:48:00.539Z,23.16
2019-04-10T04:50:34.107Z,23.19
2019-04-10T04:53:06.677Z,23.21
2019-04-10T04:55:39.469Z,23.23
2019-04-10T04:58:11.849Z,23.24
2019-04-10T05:00:43.585Z,23.25
2019-04-10T05:03:16.337Z,23.28
2019-04-10T05:05:48.166Z,23.29
2019-04-10T05:08:20.324Z,23.28
2019-04-10T05:10:52.440Z,23.28
2019-04-10T05:13:24.475Z,23.27
2019-04-10T05:15:57.335Z,23.23
2019-04-10T05:18:32.124Z,23.16
2019-04-10T05:21:03.793Z,23.12
2019-04-10T05:23:35.750Z,23.18
2019-04-10T05:26:10.364Z,23.18
2019-04-10T05:28:44.522Z,23.19
2019-04-10T05:31:17.233Z,23.18
2019-04-10T05:33:49.977Z,23.21
2019-04-10T05:36:21.680Z,23.18
2019-04-10T05:38:54.446Z,23.18
2019-04-10T05:41:26.459Z,23.19
2019-04-10T05:43:58.959Z,23.22
2019-04-10T05:46:30.980Z,23.26
2019-04-10T05:49:04.558Z,23.30
2019-04-10T05:51:37.450Z,23.29
2019-04-10T05:54:11.374Z,23.28
2019-04-10T05:56:45.422Z,23.30
2019-04-10T05:59:17.268Z,23.30
2019-04-10T06:01:50.503Z,23.34
2019-04-10T06:04:22.388Z,23.32
2019-04-10T06:06:54.885Z,23.49
2019-04-10T06:09:26.953Z,23.61
2019-04-10T06:12:03.465Z,23.71
2019-04-10T06:14:35.015Z,23.80
2019-04-10T06:17:07.941Z,23.87
2019-04-10T06:19:40.741Z,23.93
2019-04-10T06:22:12.807Z,23.98
2019-04-10T06:24:44.816Z,24.02
2019-04-10T06:27:16.603Z,24.07
2019-04-10T06:29:48.244Z,24.13
2019-04-10T06:32:21.177Z,24.15
2019-04-10T06:34:53.339Z,24.18
2019-04-10T06:37:26.168Z,24.22
2019-04-10T06:40:07.871Z,24.25
2019-04-10T06:42:44.357Z,24.27
2019-04-10T06:45:07.253Z,24.30
2019-04-10T06:47:39.395Z,24.32
2019-04-10T06:50:13.263Z,24.34
2019-04-10T06:52:51.429Z,24.36
2019-04-10T06:55:25.417Z,24.36
2019-04-10T06:57:59.309Z,24.39
2019-04-10T07:00:32.484Z,24.40
2019-04-10T07:03:04.848Z,24.40
2019-04-10T07:05:46.883Z,24.40
2019-04-10T07:08:16.457Z,24.42
2019-04-10T07:10:53.180Z,24.42
2019-04-10T07:13:19.601Z,24.43
2019-04-10T07:15:54.440Z,24.44
2019-04-10T07:18:26.312Z,24.44
2019-04-10T07:21:00.999Z,24.44
2019-04-10T07:23:33.403Z,24.45
2019-04-10T07:26:06.024Z,24.44
2019-04-10T07:28:41.509Z,24.46
2019-04-10T07:31:11.674Z,24.46
2019-04-10T07:33:47.143Z,24.47
2019-04-10T07:36:18.222Z,24.49
2019-04-10T07:38:53.898Z,24.50
2019-04-10T07:41:25.947Z,24.49
2019-04-10T07:43:58.195Z,24.50
2019-04-10T07:46:31.221Z,24.51
2019-04-10T07:49:03.580Z,24.51
2019-04-10T07:51:36.576Z,24.52
2019-04-10T07:54:09.191Z,24.52
2019-04-10T07:56:41.796Z,24.52
2019-04-10T07:59:13.980Z,24.52
2019-04-10T08:01:49.513Z,24.55
2019-04-10T08:04:23.212Z,24.55
2019-04-10T08:06:54.973Z,24.55
2019-04-10T08:09:27.311Z,24.55
2019-04-10T08:11:59.149Z,24.55
2019-04-10T08:14:31.570Z,24.55
2019-04-10T08:17:03.817Z,24.54
2019-04-10T08:19:36.924Z,24.56
2019-04-10T08:22:10.266Z,24.57
2019-04-10T08:24:42.701Z,24.55
2019-04-10T08:27:14.968Z,24.57
2019-04-10T08:29:46.689Z,24.56
2019-04-10T08:32:18.425Z,24.56
2019-04-10T08:34:51.241Z,24.55
2019-04-10T08:37:24.183Z,24.55
2019-04-10T08:39:56.845Z,24.55
2019-04-10T08:42:28.915Z,24.57
2019-04-10T08:45:00.825Z,24.56
2019-04-10T08:47:33.452Z,24.56
2019-04-10T08:50:07.636Z,24.56
2019-04-10T08:52:40.984Z,24.57
2019-04-10T08:55:13.430Z,24.56
2019-04-10T08:57:46.199Z,24.57
2019-04-10T09:00:18.625Z,24.55
2019-04-10T09:02:50.603Z,24.54
2019-04-10T09:05:23.805Z,24.54
2019-04-10T09:07:57.446Z,24.55
2019-04-10T09:10:30.246Z,24.54
2019-04-10T09:13:02.173Z,24.53
2019-04-10T09:15:34.385Z,24.54
2019-04-10T09:18:06.491Z,24.53
2019-04-10T09:20:38.597Z,24.54
2019-04-10T09:23:23.647Z,24.54
2019-04-10T09:25:44.221Z,24.54
2019-04-10T09:28:16.211Z,24.53
2019-04-10T09:30:49.006Z,24.54
2019-04-10T09:33:24.914Z,24.53
2019-04-10T09:35:57.754Z,24.54
2019-04-10T09:38:30.677Z,24.53
2019-04-10T09:41:03.625Z,24.53
2019-04-10T09:43:37.929Z,24.51
2019-04-10T09:46:11.269Z,24.51
2019-04-10T09:48:44.242Z,24.51
2019-04-10T09:51:19.456Z,24.51
2019-04-10T09:53:51.248Z,24.52
2019-04-10T09:56:23.701Z,24.50
2019-04-10T09:58:56.745Z,24.49
2019-04-10T10:01:30.291Z,24.51
2019-04-10T10:04:02.867Z,24.49
2019-04-10T10:06:36.591Z,24.50
2019-04-10T10:09:08.488Z,24.48
2019-04-10T10:11:40.356Z,24.48
2019-04-10T10:14:12.554Z,24.47
2019-04-10T10:16:45.002Z,24.47
2019-04-10T10:19:18.228Z,24.46
2019-04-10T10:21:50.531Z,24.45
2019-04-10T10:24:22.563Z,24.44
2019-04-10T10:26:55.545Z,24.45
2019-04-10T10:29:28.144Z,24.43
2019-04-10T10:32:00.404Z,24.43
2019-04-10T10:34:32.430Z,24.43
2019-04-10T10:37:06.325Z,24.42
2019-04-10T10:39:38.991Z,24.41
2019-04-10T10:42:11.668Z,24.42
2019-04-10T10:44:45.966Z,24.40
2019-04-10T10:47:18.125Z,24.40
2019-04-10T10:49:50.816Z,24.39
2019-04-10T10:52:23.683Z,24.40
2019-04-10T10:54:55.602Z,24.40
2019-04-10T10:57:27.542Z,24.40
2019-04-10T10:59:59.861Z,24.35
2019-04-10T11:02:32.437Z,24.27
2019-04-10T11:05:07.083Z,24.19
2019-04-10T11:07:38.977Z,24.12
2019-04-10T11:10:11.115Z,24.09
2019-04-10T11:12:44.096Z,24.02
2019-04-10T11:15:16.266Z,24.02
2019-04-10T11:17:49.862Z,23.99
2019-04-10T11:20:21.981Z,23.96
2019-04-10T11:22:54.088Z,23.92
2019-04-10T11:25:26.158Z,23.82
2019-04-10T11:27:58.447Z,23.71
2019-04-10T11:30:30.589Z,23.62
2019-04-10T11:33:02.683Z,23.63
2019-04-10T11:35:34.937Z,23.64
2019-04-10T11:38:07.258Z,23.68
2019-04-10T11:40:45.607Z,23.66
2019-04-10T11:43:19.049Z,23.66
2019-04-10T11:45:53.853Z,23.63
2019-04-10T11:48:25.660Z,23.51
2019-04-10T11:51:00.647Z,23.54
2019-04-10T11:53:32.706Z,23.51
2019-04-10T11:56:05.707Z,23.47
2019-04-10T12:01:13.073Z,23.50
2019-04-10T12:03:49.082Z,23.50
2019-04-10T12:06:22.390Z,23.44
2019-04-10T12:09:13.337Z,23.36
2019-04-10T12:11:26.090Z,23.24
2019-04-10T12:13:58.918Z,23.12
2019-04-10T12:16:31.348Z,23.19
2019-04-10T12:19:04.621Z,23.08
2019-04-10T12:21:37.906Z,23.02
2019-04-10T12:24:11.562Z,23.10
2019-04-10T12:26:45.030Z,23.11
2019-04-10T12:29:18.274Z,23.15
2019-04-10T12:31:54.537Z,23.18
2019-04-10T12:34:26.933Z,23.19
2019-04-10T12:36:59.431Z,23.23
2019-04-10T12:39:32.217Z,23.23
2019-04-10T12:42:04.364Z,23.24
2019-04-10T12:44:36.068Z,23.26
2019-04-10T12:47:08.229Z,23.29
2019-04-10T12:49:41.287Z,23.29
2019-04-10T12:52:16.383Z,23.28
2019-04-10T12:54:49.138Z,23.28
2019-04-10T12:57:21.116Z,23.34
2019-04-10T12:59:59.407Z,23.42
2019-04-10T13:02:26.451Z,23.48
2019-04-10T13:04:58.719Z,23.51
2019-04-10T13:07:31.686Z,23.54
2019-04-10T13:10:06.676Z,23.50
2019-04-10T13:12:39.679Z,23.53
2019-04-10T13:15:13.062Z,23.53
2019-04-10T13:17:49.032Z,23.61
2019-04-10T13:20:21.890Z,23.66
2019-04-10T13:22:53.777Z,23.63
2019-04-10T13:25:26.052Z,23.66
2019-04-10T13:27:57.756Z,23.68
2019-04-10T13:30:41.479Z,23.66
2019-04-10T13:33:03.197Z,23.71
2019-04-10T13:35:35.549Z,23.70
2019-04-10T13:38:07.361Z,23.71
2019-04-10T13:40:39.575Z,23.69
2019-04-10T13:43:11.716Z,23.68
2019-04-10T13:45:43.936Z,23.70
2019-04-10T13:48:16.542Z,23.64
2019-04-10T13:50:48.751Z,23.57
2019-04-10T13:53:21.663Z,23.50
2019-04-10T13:55:54.723Z,23.44
2019-04-10T13:58:28.824Z,23.44
2019-04-10T14:01:03.020Z,23.41
2019-04-10T14:03:34.703Z,23.42
2019-04-10T14:06:25.458Z,23.39
2019-04-10T14:09:11.600Z,23.44
2019-04-10T14:11:31.165Z,23.49
2019-04-10T14:14:04.423Z,23.57
2019-04-10T14:16:39.064Z,23.57
2019-04-10T14:19:10.790Z,23.55
2019-04-10T14:21:42.882Z,23.57
2019-04-10T14:24:15.719Z,23.54
2019-04-10T14:27:05.788Z,23.57
2019-04-10T14:29:38.631Z,23.56
2019-04-10T14:32:13.358Z,23.51
2019-04-10T14:34:47.051Z,23.52
2019-04-10T14:37:19.116Z,23.40
2019-04-10T14:39:51.563Z,23.29
2019-04-10T14:42:24.535Z,23.10
2019-04-10T14:44:57.154Z,23.01
2019-04-10T14:47:29.691Z,23.00
2019-04-10T14:50:02.130Z,22.96
2019-04-10T14:52:35.687Z,22.82
2019-04-10T14:55:08.209Z,22.81
2019-04-10T14:57:41.009Z,22.73
2019-04-10T15:00:14.753Z,22.81
2019-04-10T15:02:47.334Z,22.82
2019-04-10T15:05:19.311Z,22.94
2019-04-10T15:07:51.144Z,22.90
2019-04-10T15:10:23.193Z,22.84
2019-04-10T15:13:06.898Z,22.84
2019-04-10T15:15:29.247Z,22.85
2019-04-10T15:18:02.462Z,22.75
2019-04-10T15:20:35.624Z,22.78
2019-04-10T15:23:07.889Z,22.75
2019-04-10T15:25:41.533Z,22.83
2019-04-10T15:28:14.002Z,22.86
2019-04-10T15:30:46.579Z,22.81
2019-04-10T15:33:18.604Z,22.73
2019-04-10T15:35:51.171Z,22.71
2019-04-10T15:38:24.149Z,22.67
2019-04-10T15:40:56.802Z,22.69
2019-04-10T15:43:29.432Z,22.60
2019-04-10T15:46:02.301Z,22.66
2019-04-10T15:48:37.691Z,22.64
2019-04-10T15:51:11.969Z,22.55
2019-04-10T15:53:43.886Z,22.47
2019-04-10T15:56:15.913Z,22.40
2019-04-10T15:58:47.937Z,22.36
2019-04-10T16:01:20.115Z,22.26
2019-04-10T16:03:52.758Z,22.21
2019-04-10T16:06:25.307Z,22.14
2019-04-10T16:08:57.278Z,22.47
2019-04-10T16:11:43.720Z,22.68
2019-04-10T16:14:22.598Z,22.87
2019-04-10T16:16:54.920Z,23.04
2019-04-10T16:19:34.621Z,23.19
2019-04-10T16:22:08.665Z,23.29
2019-04-10T16:24:40.907Z,23.39
2019-04-10T16:27:13.686Z,23.47
2019-04-10T16:29:46.846Z,23.53
2019-04-10T16:32:21.180Z,23.58
2019-04-10T16:34:52.876Z,23.63
2019-04-10T16:37:24.816Z,23.66
2019-04-10T16:40:03.297Z,23.71
2019-04-10T16:42:30.750Z,23.72
2019-04-10T16:45:03.877Z,23.76
2019-04-10T16:47:36.506Z,23.78
2019-04-10T16:50:09.301Z,23.78
2019-04-10T16:52:41.062Z,23.80
2019-04-10T16:55:13.533Z,23.83
2019-04-10T16:57:45.845Z,23.84
2019-04-10T17:00:20.577Z,23.86
2019-04-10T17:02:52.723Z,23.86
2019-04-10T17:05:25.101Z,23.88
2019-04-10T17:07:57.339Z,23.89
2019-04-10T17:10:29.853Z,23.88
2019-04-10T17:13:02.349Z,23.88
2019-04-10T17:15:34.401Z,23.90
2019-04-10T17:18:06.648Z,23.90
2019-04-10T17:20:42.482Z,23.88
2019-04-10T17:23:14.476Z,23.89
2019-04-10T17:25:46.542Z,23.91
2019-04-10T17:28:21.667Z,23.93
2019-04-10T17:30:53.948Z,23.91
2019-04-10T17:33:26.752Z,23.93
2019-04-10T17:36:00.174Z,23.96
2019-04-10T17:38:32.027Z,23.96
2019-04-10T17:41:04.454Z,23.94
2019-04-10T17:43:37.169Z,23.94
2019-04-10T17:46:09.288Z,23.92
2019-04-10T17:48:42.058Z,23.89
2019-04-10T17:51:14.159Z,23.91
2019-04-10T17:53:47.321Z,23.86
2019-04-10T17:56:20.135Z,23.85
2019-04-10T17:58:52.069Z,23.86
2019-04-10T18:01:25.536Z,23.85
2019-04-10T18:04:00.535Z,23.85
2019-04-10T18:06:31.176Z,23.84
2019-04-10T18:09:03.628Z,23.84
2019-04-10T18:11:35.354Z,23.83
2019-04-10T18:14:09.027Z,23.82
2019-04-10T18:16:40.763Z,23.82
2019-04-10T18:19:16.964Z,23.83
2019-04-10T18:21:49.881Z,23.82
2019-04-10T18:24:22.081Z,23.82
2019-04-10T18:26:56.555Z,23.82
2019-04-10T18:29:28.209Z,23.81
2019-04-10T18:32:01.814Z,23.81
2019-04-10T18:34:35.388Z,23.85
2019-04-10T18:37:11.107Z,23.88
2019-04-10T18:39:43.005Z,23.92
2019-04-10T18:42:15.025Z,23.93
2019-04-10T18:44:50.263Z,23.96
2019-04-10T18:47:22.387Z,23.96
2019-04-10T18:49:55.870Z,23.95
2019-04-10T18:52:27.965Z,23.94
2019-04-10T18:55:00.495Z,23.93
2019-04-10T18:57:35.682Z,23.92
2019-04-10T19:00:26.260Z,23.88
2019-04-10T19:03:17.468Z,23.88
2019-04-10T19:05:56.396Z,23.85
2019-04-10T19:08:28.424Z,23.80
2019-04-10T19:11:10.645Z,23.80
2019-04-10T19:13:34.803Z,23.84
2019-04-10T19:16:08.912Z,23.88
2019-04-10T19:18:41.283Z,23.93
2019-04-10T19:21:13.294Z,23.97
2019-04-10T19:23:47.831Z,24.00
2019-04-10T19:26:23.154Z,24.04
2019-04-10T19:29:01.172Z,24.07
2019-04-10T19:31:37.506Z,24.08
2019-04-10T19:34:10.240Z,24.12
2019-04-10T19:36:44.410Z,24.14
2019-04-10T19:39:16.574Z,24.16
2019-04-10T19:41:49.004Z,24.19
2019-04-10T19:44:24.863Z,24.21
2019-04-10T19:46:57.816Z,24.25
2019-04-10T19:49:30.789Z,24.26
2019-04-10T19:52:06.383Z,24.29
2019-04-10T19:54:38.866Z,24.30
2019-04-10T19:57:29.512Z,24.31
2019-04-10T20:00:08.635Z,24.33
2019-04-10T20:02:41.737Z,24.32
2019-04-10T20:05:15.010Z,24.33
2019-04-10T20:07:47.356Z,24.34
2019-04-10T20:10:19.312Z,24.36
2019-04-10T20:12:57.178Z,24.37
2019-04-10T20:15:31.409Z,24.38
2019-04-10T20:18:04.371Z,24.39
2019-04-10T20:20:37.468Z,24.39
2019-04-10T20:23:19.378Z,24.40
2019-04-10T20:25:51.533Z,24.41
2019-04-10T20:28:24.673Z,24.42
2019-04-10T20:30:58.085Z,24.44
2019-04-10T20:33:32.675Z,24.44
2019-04-10T20:36:04.817Z,24.45
2019-04-10T20:38:36.713Z,24.46
2019-04-10T20:41:10.773Z,24.46
2019-04-10T20:43:43.387Z,24.46
2019-04-10T20:46:15.086Z,24.46
2019-04-10T20:48:50.862Z,24.47
2019-04-10T20:51:25.017Z,24.47
2019-04-10T20:53:57.929Z,24.48
2019-04-10T20:56:30.704Z,24.50
2019-04-10T20:59:03.494Z,24.49
2019-04-10T21:01:35.696Z,24.50
2019-04-10T21:04:09.205Z,24.51
2019-04-10T21:06:43.616Z,24.50
2019-04-10T21:09:34.110Z,24.51
2019-04-10T21:12:12.827Z,24.51
2019-04-10T21:14:43.896Z,24.50
2019-04-10T21:17:16.429Z,24.51
2019-04-10T21:19:49.415Z,24.51
2019-04-10T21:22:24.606Z,24.50
2019-04-10T21:24:56.935Z,24.51
2019-04-10T21:27:28.590Z,24.51
2019-04-10T21:30:22.081Z,24.51
2019-04-10T21:33:14.292Z,24.52
2019-04-10T21:35:47.664Z,24.51
2019-04-10T21:38:19.872Z,24.50
2019-04-10T21:40:51.848Z,24.51
2019-04-10T21:43:23.739Z,24.50
2019-04-10T21:45:55.550Z,24.50
2019-04-10T21:48:27.645Z,24.50
2019-04-10T21:51:00.590Z,24.51
2019-04-10T21:53:34.152Z,24.50
2019-04-10T21:56:06.278Z,24.50
2019-04-10T21:58:38.883Z,24.51
2019-04-10T22:01:11.912Z,24.51
2019-04-10T22:03:43.661Z,24.51
2019-04-10T22:06:26.119Z,24.51
2019-04-10T22:08:59.519Z,24.52
2019-04-10T22:11:31.567Z,24.52
2019-04-10T22:14:04.504Z,24.51
2019-04-10T22:16:36.517Z,24.51
2019-04-10T22:19:08.810Z,24.52
2019-04-10T22:21:41.945Z,24.53
2019-04-10T22:24:13.969Z,24.51
2019-04-10T22:26:46.804Z,24.52
2019-04-10T22:29:19.549Z,24.52
2019-04-10T22:31:51.433Z,24.51
2019-04-10T22:34:23.040Z,24.51
2019-04-10T22:36:55.603Z,24.51
2019-04-10T22:39:27.670Z,24.51
2019-04-10T22:41:59.712Z,24.51
2019-04-10T22:44:36.717Z,24.52
2019-04-10T22:47:05.426Z,24.60
2019-04-10T22:49:37.193Z,24.66
2019-04-10T22:52:09.141Z,24.70
2019-04-10T22:54:42.303Z,23.16
2019-04-10T22:57:14.553Z,22.65
2019-04-10T22:59:46.918Z,22.94
2019-04-10T23:02:19.336Z,23.15
2019-04-10T23:04:51.639Z,23.30
2019-04-10T23:07:24.100Z,23.45
2019-04-10T23:09:56.917Z,23.57
2019-04-10T23:12:30.011Z,23.69
2019-04-10T23:15:02.973Z,23.79
2019-04-10T23:17:35.035Z,23.86
2019-04-10T23:20:08.743Z,23.93
2019-04-10T23:22:41.066Z,24.01
2019-04-10T23:25:13.090Z,24.05
2019-04-10T23:27:46.105Z,24.11
2019-04-10T23:30:19.962Z,24.12
2019-04-10T23:32:53.271Z,24.16
2019-04-10T23:35:25.471Z,24.17
2019-04-10T23:37:57.477Z,24.20
2019-04-10T23:40:29.804Z,24.21
2019-04-10T23:43:09.385Z,24.23
2019-04-10T23:45:35.579Z,24.25
2019-04-10T23:48:08.682Z,24.27
2019-04-10T23:50:40.757Z,24.25
2019-04-10T23:53:12.531Z,24.27
2019-04-10T23:55:44.394Z,24.27
2019-04-10T23:58:16.281Z,24.28
